This is the latest recevied weather packets stored in our database for station/object WD9EKA. If no packets are shown the sender has not sent any weather packets the latest 1 day(s).
| Time | Temp. | Humidity | Pressure | Rain* | Wind** | Luminosity | Snow |
|---|---|---|---|---|---|---|---|
| 1777974342 | 12.22° C | 99% | 1001.3 hPa | 0.76 mm | 0 m/s | - | - |
| 1777974022 | 12.22° C | 99% | 1000.7 hPa | 1.02 mm | 0 m/s | - | - |
| 1777973686 | 12.22° C | 99% | 1000.3 hPa | 1.52 mm | 0 m/s | - | - |
| 1777973366 | 12.22° C | 99% | 1000.9 hPa | 1.78 mm | 0 m/s | - | - |
| 1777973046 | 12.22° C | 99% | 1001.3 hPa | 2.03 mm | 0.45 m/s, 197° | - | - |
| 1777972407 | 12.78° C | 99% | 1001.3 hPa | 2.79 mm | 0.45 m/s, 220° | - | - |
| 1777972086 | 12.22° C | 99% | 1001.2 hPa | 2.79 mm | 0 m/s | - | - |
| 1777971765 | 12.22° C | 99% | 1001.4 hPa | 3.05 mm | 0 m/s | - | - |
| 1777971446 | 12.22° C | 99% | 1001.4 hPa | 3.05 mm | 1.79 m/s, 170° | - | - |
| 1777971126 | 12.22° C | 99% | 1002.1 hPa | 3.3 mm | 1.34 m/s, 163° | - | - |
| 1777970806 | 12.22° C | 99% | 1002.5 hPa | 3.56 mm | 1.79 m/s, 237° | - | - |
| 1777970486 | 12.22° C | 99% | 1002.5 hPa | 3.3 mm | 1.79 m/s, 216° | - | - |
| 1777970166 | 12.22° C | 99% | 1002.3 hPa | 3.56 mm | 0.89 m/s, 209° | - | - |
| 1777969846 | 12.78° C | 99% | 1002.6 hPa | 3.56 mm | 0.89 m/s, 193° | - | - |
| 1777969526 | 12.78° C | 99% | 1002.6 hPa | 3.81 mm | 1.34 m/s, 220° | - | - |
| 1777969208 | 12.78° C | 99% | 1003 hPa | 3.81 mm | 4.02 m/s, 231° | - | - |
| 1777968886 | 12.78° C | 99% | 1002.5 hPa | 3.3 mm | 2.24 m/s, 233° | - | - |
| 1777968573 | 12.78° C | 99% | 1002.2 hPa | 3.3 mm | 0 m/s | - | - |
| 1777968214 | 12.78° C | 99% | 1002 hPa | 3.3 mm | 0 m/s | - | - |
| 1777967853 | 12.78° C | 99% | 1001.4 hPa | 3.56 mm | 0.45 m/s, 130° | - | - |
| 1777967493 | 12.78° C | 99% | 1001.7 hPa | 3.3 mm | 0 m/s | - | - |
| 1777966774 | 12.78° C | 99% | 1003 hPa | 5.33 mm | 1.79 m/s, 166° | - | - |
| 1777966413 | 12.22° C | 99% | 1003 hPa | 4.83 mm | 0 m/s | - | - |
| 1777966054 | 12.78° C | 99% | 1002.9 hPa | 4.57 mm | 0 m/s | - | - |
* Rain latest hour (hover to see other rain measurements)
** Current wind speed in m/s (hover to see current wind gust speed)